sensor_id;sensor_type;location;lat;lon;timestamp;pressure;altitude;pressure_sealevel;temperature;humidity
71907;BME280;59781;52.090;5.030;2022-10-16T00:24:33;100826.16;;;13.17;86.88
71907;BME280;59781;52.090;5.030;2022-10-16T00:26:59;100822.31;;;13.12;87.12
71907;BME280;59781;52.090;5.030;2022-10-16T00:32:37;100830.06;;;13.30;86.51
71907;BME280;59781;52.090;5.030;2022-10-16T00:35:23;100827.72;;;13.12;87.76
71907;BME280;59781;52.090;5.030;2022-10-16T00:39:15;100840.94;;;13.07;88.51
71907;BME280;59781;52.090;5.030;2022-10-16T00:42:16;100839.56;;;13.11;88.50
71907;BME280;59781;52.090;5.030;2022-10-16T00:45:34;100841.63;;;13.38;86.97
71907;BME280;59781;52.090;5.030;2022-10-16T00:48:00;100843.78;;;13.28;87.30
71907;BME280;59781;52.090;5.030;2022-10-16T00:50:33;100840.78;;;13.38;87.91
71907;BME280;59781;52.090;5.030;2022-10-16T00:53:33;100846.44;;;13.58;86.39
71907;BME280;59781;52.090;5.030;2022-10-16T01:37:38;100800.22;;;13.38;93.63
71907;BME280;59781;52.090;5.030;2022-10-16T01:44:53;100821.59;;;13.54;92.62
71907;BME280;59781;52.090;5.030;2022-10-16T01:48:17;100818.91;;;13.54;92.40
71907;BME280;59781;52.090;5.030;2022-10-16T01:51:37;100830.84;;;13.45;93.49
71907;BME280;59781;52.090;5.030;2022-10-16T02:06:38;100841.13;;;13.35;94.12
71907;BME280;59781;52.090;5.030;2022-10-16T02:09:36;100850.13;;;13.20;94.96
71907;BME280;59781;52.090;5.030;2022-10-16T02:24:54;100862.56;;;13.07;95.26
71907;BME280;59781;52.090;5.030;2022-10-16T02:43:37;100865.38;;;13.13;94.86
71907;BME280;59781;52.090;5.030;2022-10-16T02:54:29;100872.94;;;13.18;94.86
71907;BME280;59781;52.090;5.030;2022-10-16T03:13:33;100848.63;;;13.33;94.60
71907;BME280;59781;52.090;5.030;2022-10-16T03:32:11;100885.06;;;13.37;94.39
71907;BME280;59781;52.090;5.030;2022-10-16T03:39:41;100902.16;;;13.23;95.21
71907;BME280;59781;52.090;5.030;2022-10-16T03:47:23;100894.44;;;13.19;95.28
71907;BME280;59781;52.090;5.030;2022-10-16T03:50:22;100903.63;;;13.55;93.36
71907;BME280;59781;52.090;5.030;2022-10-16T03:53:21;100902.31;;;13.36;94.29
71907;BME280;59781;52.090;5.030;2022-10-16T04:01:03;100909.06;;;13.40;95.06
71907;BME280;59781;52.090;5.030;2022-10-16T04:03:28;100914.28;;;13.41;94.84
71907;BME280;59781;52.090;5.030;2022-10-16T04:10:38;100923.91;;;13.29;94.58
71907;BME280;59781;52.090;5.030;2022-10-16T04:37:36;100956.44;;;13.21;96.85
71907;BME280;59781;52.090;5.030;2022-10-16T04:40:02;100954.09;;;13.33;95.61
71907;BME280;59781;52.090;5.030;2022-10-16T04:43:27;100956.56;;;13.05;97.60
71907;BME280;59781;52.090;5.030;2022-10-16T05:04:11;100995.75;;;13.09;96.39
71907;BME280;59781;52.090;5.030;2022-10-16T05:06:38;101000.00;;;12.88;97.59
71907;BME280;59781;52.090;5.030;2022-10-16T05:17:16;101015.41;;;13.03;97.74
71907;BME280;59781;52.090;5.030;2022-10-16T05:24:16;101017.13;;;12.96;98.31
71907;BME280;59781;52.090;5.030;2022-10-16T05:39:28;101043.84;;;13.13;97.71
71907;BME280;59781;52.090;5.030;2022-10-16T05:42:14;101050.34;;;13.04;97.81
71907;BME280;59781;52.090;5.030;2022-10-16T05:45:13;101056.63;;;13.28;97.44
71907;BME280;59781;52.090;5.030;2022-10-16T06:00:12;101060.03;;;13.22;98.79
71907;BME280;59781;52.090;5.030;2022-10-16T06:36:51;101103.66;;;12.96;100.00
71907;BME280;59781;52.090;5.030;2022-10-16T06:39:36;101092.00;;;12.95;100.00
71907;BME280;59781;52.090;5.030;2022-10-16T06:42:07;101093.00;;;13.17;100.00
71907;BME280;59781;52.090;5.030;2022-10-16T06:45:56;101103.16;;;13.15;99.93
71907;BME280;59781;52.090;5.030;2022-10-16T06:50:31;101111.19;;;13.08;100.00
71907;BME280;59781;52.090;5.030;2022-10-16T06:53:31;101109.31;;;13.32;98.97
71907;BME280;59781;52.090;5.030;2022-10-16T06:56:23;101114.94;;;13.45;96.22
71907;BME280;59781;52.090;5.030;2022-10-16T06:59:15;101118.59;;;13.37;96.95
71907;BME280;59781;52.090;5.030;2022-10-16T07:02:16;101125.66;;;13.38;96.72
71907;BME280;59781;52.090;5.030;2022-10-16T07:05:41;101131.59;;;13.71;94.56
71907;BME280;59781;52.090;5.030;2022-10-16T07:09:11;101141.19;;;13.59;95.12
71907;BME280;59781;52.090;5.030;2022-10-16T07:13:01;101145.66;;;13.52;96.69
71907;BME280;59781;52.090;5.030;2022-10-16T07:16:47;101155.13;;;13.71;95.78
71907;BME280;59781;52.090;5.030;2022-10-16T07:20:25;101165.13;;;13.70;95.60
71907;BME280;59781;52.090;5.030;2022-10-16T07:23:12;101169.69;;;13.85;94.37
71907;BME280;59781;52.090;5.030;2022-10-16T07:27:05;101191.34;;;13.70;93.72
71907;BME280;59781;52.090;5.030;2022-10-16T07:30:39;101194.63;;;13.80;94.77
71907;BME280;59781;52.090;5.030;2022-10-16T07:34:14;101200.75;;;13.97;93.73
71907;BME280;59781;52.090;5.030;2022-10-16T07:37:22;101211.66;;;13.66;96.36
71907;BME280;59781;52.090;5.030;2022-10-16T07:40:10;101219.56;;;14.57;92.85
71907;BME280;59781;52.090;5.030;2022-10-16T07:44:18;101221.47;;;15.29;88.82
71907;BME280;59781;52.090;5.030;2022-10-16T07:48:15;101226.88;;;16.21;84.15
71907;BME280;59781;52.090;5.030;2022-10-16T07:51:30;101221.19;;;16.44;81.95
71907;BME280;59781;52.090;5.030;2022-10-16T07:53:56;101226.00;;;16.14;82.88
71907;BME280;59781;52.090;5.030;2022-10-16T07:57:03;101238.81;;;16.96;78.25
71907;BME280;59781;52.090;5.030;2022-10-16T08:00:36;101230.91;;;16.25;81.11
71907;BME280;59781;52.090;5.030;2022-10-16T08:03:50;101239.28;;;16.65;79.63
71907;BME280;59781;52.090;5.030;2022-10-16T08:07:28;101248.75;;;17.24;77.79
71907;BME280;59781;52.090;5.030;2022-10-16T08:10:29;101258.81;;;17.23;76.38
71907;BME280;59781;52.090;5.030;2022-10-16T08:13:22;101256.13;;;17.36;75.70
71907;BME280;59781;52.090;5.030;2022-10-16T08:15:50;101255.59;;;17.94;74.07
71907;BME280;59781;52.090;5.030;2022-10-16T08:19:09;101262.53;;;18.10;72.56
71907;BME280;59781;52.090;5.030;2022-10-16T08:22:31;101266.84;;;17.51;74.19
71907;BME280;59781;52.090;5.030;2022-10-16T08:26:07;101267.72;;;18.51;71.13
71907;BME280;59781;52.090;5.030;2022-10-16T08:29:21;101266.94;;;17.91;72.79
71907;BME280;59781;52.090;5.030;2022-10-16T08:32:31;101276.97;;;18.50;70.92
71907;BME280;59781;52.090;5.030;2022-10-16T08:35:40;101280.75;;;18.09;71.40
71907;BME280;59781;52.090;5.030;2022-10-16T08:46:19;101300.47;;;18.04;70.99
71907;BME280;59781;52.090;5.030;2022-10-16T08:49:13;101301.16;;;19.11;68.60
71907;BME280;59781;52.090;5.030;2022-10-16T08:52:14;101303.81;;;18.59;68.42
71907;BME280;59781;52.090;5.030;2022-10-16T08:55:04;101313.88;;;18.52;69.67
71907;BME280;59781;52.090;5.030;2022-10-16T08:58:54;101307.69;;;19.10;66.99
71907;BME280;59781;52.090;5.030;2022-10-16T09:16:43;101328.59;;;17.31;75.17
71907;BME280;59781;52.090;5.030;2022-10-16T09:19:16;101336.75;;;18.25;71.61
71907;BME280;59781;52.090;5.030;2022-10-16T09:22:27;101343.41;;;17.89;72.25
71907;BME280;59781;52.090;5.030;2022-10-16T09:25:21;101341.09;;;17.80;72.98
71907;BME280;59781;52.090;5.030;2022-10-16T09:28:16;101346.19;;;18.82;68.66
71907;BME280;59781;52.090;5.030;2022-10-16T09:32:18;101342.00;;;17.39;74.12
71907;BME280;59781;52.090;5.030;2022-10-16T09:35:56;101349.31;;;18.99;67.45
71907;BME280;59781;52.090;5.030;2022-10-16T09:39:04;101346.97;;;20.73;61.76
71907;BME280;59781;52.090;5.030;2022-10-16T09:42:35;101358.34;;;20.52;62.33
71907;BME280;59781;52.090;5.030;2022-10-16T09:45:39;101351.84;;;19.45;66.28
71907;BME280;59781;52.090;5.030;2022-10-16T09:48:12;101357.53;;;19.88;63.39
71907;BME280;59781;52.090;5.030;2022-10-16T09:51:42;101356.13;;;19.79;64.16
71907;BME280;59781;52.090;5.030;2022-10-16T09:54:28;101344.53;;;19.39;66.14
71907;BME280;59781;52.090;5.030;2022-10-16T09:58:22;101344.19;;;20.55;61.39
71907;BME280;59781;52.090;5.030;2022-10-16T10:01:36;101362.09;;;20.57;62.06
71907;BME280;59781;52.090;5.030;2022-10-16T10:04:50;101365.34;;;20.16;61.30
71907;BME280;59781;52.090;5.030;2022-10-16T10:08:18;101363.19;;;18.77;67.71
71907;BME280;59781;52.090;5.030;2022-10-16T10:11:04;101374.66;;;19.77;62.13
71907;BME280;59781;52.090;5.030;2022-10-16T10:14:03;101379.97;;;18.74;66.47
71907;BME280;59781;52.090;5.030;2022-10-16T10:17:52;101379.13;;;18.54;67.75
71907;BME280;59781;52.090;5.030;2022-10-16T10:20:32;101383.34;;;18.43;67.56
71907;BME280;59781;52.090;5.030;2022-10-16T10:23:38;101379.75;;;18.62;66.76
71907;BME280;59781;52.090;5.030;2022-10-16T10:26:43;101378.44;;;19.18;65.88
71907;BME280;59781;52.090;5.030;2022-10-16T10:29:45;101389.56;;;20.69;60.85
71907;BME280;59781;52.090;5.030;2022-10-16T10:36:39;101392.47;;;20.18;61.59
71907;BME280;59781;52.090;5.030;2022-10-16T10:39:36;101397.47;;;20.77;58.07
71907;BME280;59781;52.090;5.030;2022-10-16T10:50:12;101400.13;;;21.64;53.96
71907;BME280;59781;52.090;5.030;2022-10-16T10:53:11;101407.63;;;21.87;53.83
71907;BME280;59781;52.090;5.030;2022-10-16T10:58:56;101415.19;;;20.18;56.86
71907;BME280;59781;52.090;5.030;2022-10-16T11:05:39;101423.38;;;19.87;59.01
71907;BME280;59781;52.090;5.030;2022-10-16T11:08:33;101424.25;;;20.94;57.06
71907;BME280;59781;52.090;5.030;2022-10-16T11:11:43;101416.44;;;21.59;55.23
71907;BME280;59781;52.090;5.030;2022-10-16T11:21:47;101433.41;;;21.97;50.94
71907;BME280;59781;52.090;5.030;2022-10-16T11:25:20;101441.03;;;22.14;51.12
71907;BME280;59781;52.090;5.030;2022-10-16T11:29:24;101445.56;;;20.35;57.03
71907;BME280;59781;52.090;5.030;2022-10-16T11:49:40;101449.59;;;21.87;49.76
71907;BME280;59781;52.090;5.030;2022-10-16T11:55:50;101439.78;;;21.61;50.89
71907;BME280;59781;52.090;5.030;2022-10-16T11:59:14;101453.53;;;22.10;49.57
71907;BME280;59781;52.090;5.030;2022-10-16T12:03:36;101453.13;;;21.76;50.35
71907;BME280;59781;52.090;5.030;2022-10-16T12:08:18;101458.06;;;22.34;48.04
71907;BME280;59781;52.090;5.030;2022-10-16T12:23:05;101486.69;;;21.35;50.78
71907;BME280;59781;52.090;5.030;2022-10-16T12:25:53;101487.38;;;20.80;51.75
71907;BME280;59781;52.090;5.030;2022-10-16T12:32:39;101477.91;;;21.01;50.64
71907;BME280;59781;52.090;5.030;2022-10-16T12:51:42;101479.53;;;20.21;53.43
71907;BME280;59781;52.090;5.030;2022-10-16T13:15:23;101509.66;;;19.56;53.24
71907;BME280;59781;52.090;5.030;2022-10-16T13:22:30;101497.81;;;19.82;52.62
71907;BME280;59781;52.090;5.030;2022-10-16T13:44:15;101519.94;;;19.54;54.40
71907;BME280;59781;52.090;5.030;2022-10-16T13:55:35;101528.78;;;19.43;53.74
71907;BME280;59781;52.090;5.030;2022-10-16T13:58:35;101537.00;;;19.03;54.19
71907;BME280;59781;52.090;5.030;2022-10-16T14:01:15;101543.94;;;19.12;55.55
71907;BME280;59781;52.090;5.030;2022-10-16T14:15:37;101515.38;;;19.15;56.73
71907;BME280;59781;52.090;5.030;2022-10-16T14:18:03;101520.84;;;18.95;57.74
71907;BME280;59781;52.090;5.030;2022-10-16T14:20:51;101516.22;;;19.02;58.09
71907;BME280;59781;52.090;5.030;2022-10-16T14:23:51;101520.63;;;19.10;57.74
71907;BME280;59781;52.090;5.030;2022-10-16T14:26:20;101524.41;;;19.02;58.26
71907;BME280;59781;52.090;5.030;2022-10-16T14:29:48;101532.34;;;19.43;57.96
71907;BME280;59781;52.090;5.030;2022-10-16T14:32:23;101527.13;;;19.29;59.29
71907;BME280;59781;52.090;5.030;2022-10-16T14:35:34;101527.34;;;18.74;59.71
71907;BME280;59781;52.090;5.030;2022-10-16T14:38:05;101520.63;;;18.77;59.30
71907;BME280;59781;52.090;5.030;2022-10-16T14:41:31;101523.78;;;18.87;59.35
71907;BME280;59781;52.090;5.030;2022-10-16T16:28:55;101527.16;;;16.83;76.09
71907;BME280;59781;52.090;5.030;2022-10-16T17:03:57;101567.91;;;15.52;88.26
71907;BME280;59781;52.090;5.030;2022-10-16T17:08:18;101552.84;;;15.49;87.56
71907;BME280;59781;52.090;5.030;2022-10-16T17:11:35;101548.94;;;15.81;84.52
71907;BME280;59781;52.090;5.030;2022-10-16T17:59:33;101596.44;;;16.00;81.25
71907;BME280;59781;52.090;5.030;2022-10-16T18:02:32;101587.44;;;16.14;79.99
71907;BME280;59781;52.090;5.030;2022-10-16T18:05:18;101598.41;;;16.06;81.36
71907;BME280;59781;52.090;5.030;2022-10-16T18:08:04;101599.22;;;15.92;82.63
71907;BME280;59781;52.090;5.030;2022-10-16T18:15:25;101612.63;;;15.41;86.08
71907;BME280;59781;52.090;5.030;2022-10-16T18:17:52;101608.44;;;15.53;86.67
71907;BME280;59781;52.090;5.030;2022-10-16T18:21:34;101623.31;;;15.65;85.35
71907;BME280;59781;52.090;5.030;2022-10-16T18:24:00;101639.53;;;15.88;80.90
71907;BME280;59781;52.090;5.030;2022-10-16T18:26:26;101639.53;;;15.73;82.35
71907;BME280;59781;52.090;5.030;2022-10-16T18:30:28;101639.09;;;15.62;85.62
71907;BME280;59781;52.090;5.030;2022-10-16T18:54:25;101632.66;;;15.92;79.06
71907;BME280;59781;52.090;5.030;2022-10-16T18:58:20;101641.94;;;15.68;80.05
71907;BME280;59781;52.090;5.030;2022-10-16T19:02:25;101644.50;;;15.85;80.74
71907;BME280;59781;52.090;5.030;2022-10-16T19:06:58;101639.34;;;15.90;80.11
71907;BME280;59781;52.090;5.030;2022-10-16T19:11:15;101629.78;;;15.64;83.41
71907;BME280;59781;52.090;5.030;2022-10-16T19:15:04;101625.00;;;15.96;82.26
71907;BME280;59781;52.090;5.030;2022-10-16T19:18:17;101639.91;;;15.47;84.71
71907;BME280;59781;52.090;5.030;2022-10-16T19:21:19;101637.72;;;15.81;83.88
71907;BME280;59781;52.090;5.030;2022-10-16T19:25:29;101644.19;;;15.65;83.61
71907;BME280;59781;52.090;5.030;2022-10-16T19:52:28;101633.69;;;15.39;85.26
71907;BME280;59781;52.090;5.030;2022-10-16T19:54:54;101631.63;;;15.26;86.87
71907;BME280;59781;52.090;5.030;2022-10-16T20:09:40;101610.41;;;15.07;89.29
71907;BME280;59781;52.090;5.030;2022-10-16T20:17:12;101600.00;;;14.96;90.71
71907;BME280;59781;52.090;5.030;2022-10-16T20:19:38;101614.81;;;15.08;91.23
71907;BME280;59781;52.090;5.030;2022-10-16T20:22:04;101615.34;;;15.03;90.81
71907;BME280;59781;52.090;5.030;2022-10-16T20:32:39;101620.56;;;15.28;91.38
71907;BME280;59781;52.090;5.030;2022-10-16T20:39:32;101623.56;;;15.33;90.23
71907;BME280;59781;52.090;5.030;2022-10-16T21:53:38;101520.69;;;15.08;94.23
71907;BME280;59781;52.090;5.030;2022-10-16T21:56:25;101520.97;;;15.13;93.89
71907;BME280;59781;52.090;5.030;2022-10-16T21:58:54;101521.00;;;14.90;95.11
71907;BME280;59781;52.090;5.030;2022-10-16T22:02:12;101504.69;;;15.13;93.82
71907;BME280;59781;52.090;5.030;2022-10-16T22:08:39;101518.44;;;15.12;93.46
71907;BME280;59781;52.090;5.030;2022-10-16T22:27:42;101538.78;;;15.31;91.67
71907;BME280;59781;52.090;5.030;2022-10-16T22:30:28;101524.22;;;15.61;89.53
71907;BME280;59781;52.090;5.030;2022-10-16T22:41:10;101524.22;;;15.46;90.23
71907;BME280;59781;52.090;5.030;2022-10-16T22:44:29;101533.28;;;15.39;91.03
71907;BME280;59781;52.090;5.030;2022-10-16T23:01:39;101539.16;;;15.28;92.68
71907;BME280;59781;52.090;5.030;2022-10-16T23:20:33;101540.50;;;15.46;93.06
71907;BME280;59781;52.090;5.030;2022-10-16T23:22:59;101536.81;;;14.87;96.56
71907;BME280;59781;52.090;5.030;2022-10-16T23:25:25;101527.72;;;15.17;95.27
71907;BME280;59781;52.090;5.030;2022-10-16T23:27:55;101530.44;;;15.17;94.94
71907;BME280;59781;52.090;5.030;2022-10-16T23:30:21;101528.50;;;14.88;97.14
71907;BME280;59781;52.090;5.030;2022-10-16T23:37:24;101527.22;;;15.14;95.36
71907;BME280;59781;52.090;5.030;2022-10-16T23:41:58;101532.72;;;14.91;97.00
71907;BME280;59781;52.090;5.030;2022-10-16T23:46:11;101534.75;;;14.89;97.79
71907;BME280;59781;52.090;5.030;2022-10-16T23:50:15;101518.16;;;15.07;96.52
